Time;durP1;ratioP1;P1;durP2;ratioP2;P2;SDS_P1;SDS_P2;PMS_P1;PMS_P2;Temp;Humidity;BMP_temperature;BMP_pressure;BME280_temperature;BME280_humidity;BME280_pressure;Samples;Min_cycle;Max_cycle;Signal;HPM_P1;HPM_P2
2023/10/06 00:02:19;;;;;;;23.77;15.23;;;;;;;-143.21;67.83;72470.78;5136444;27;20246;-80
2023/10/06 00:04:46;;;;;;;26.57;16.13;;;;;;;-143.21;67.69;72464.84;5138645;27;20285;-80
2023/10/06 00:07:14;;;;;;;23.97;15.53;;;;;;;-143.21;68.05;72460.88;5134831;27;20849;-81
2023/10/06 00:09:43;;;;;;;29.80;16.70;;;;;;;-143.21;68.32;72458.88;5131413;27;20206;-81
2023/10/06 00:12:13;;;;;;;27.90;17.93;;;;;;;-143.21;68.16;72458.88;5132550;27;20231;-81
2023/10/06 00:14:40;;;;;;;25.70;13.80;;;;;;;-143.21;67.94;72460.88;5135114;27;20248;-81
2023/10/06 00:17:10;;;;;;;22.30;14.40;;;;;;;-143.21;68.14;72458.88;5134636;27;20247;-81
2023/10/06 00:19:39;;;;;;;28.93;16.67;;;;;;;-143.21;68.58;72474.75;5134555;27;20199;-80
2023/10/06 00:22:13;;;;;;;26.87;13.97;;;;;;;-143.21;68.61;72468.81;5131165;27;20206;-81
2023/10/06 00:24:41;;;;;;;32.00;14.30;;;;;;;-143.21;68.82;72468.81;5134793;27;20219;-80
2023/10/06 00:27:11;;;;;;;18.70;11.67;;;;;;;-143.21;68.72;72476.75;5130635;27;20206;-80
2023/10/06 00:29:38;;;;;;;17.47;11.20;;;;;;;-143.21;68.37;72466.81;5134174;27;20209;-80
2023/10/06 00:34:47;;;;;;;20.57;10.30;;;;;;;-143.21;68.72;72484.66;5133819;27;20211;-81
2023/10/06 00:37:15;;;;;;;15.87;9.73;;;;;;;-143.21;68.55;72484.66;5133502;27;20580;-81
2023/10/06 00:39:43;;;;;;;20.67;10.13;;;;;;;-143.21;68.51;72486.66;5134442;27;20206;-80
2023/10/06 00:42:14;;;;;;;22.80;10.33;;;;;;;-143.21;68.66;72480.72;5134249;27;20281;-81
2023/10/06 00:44:44;;;;;;;21.07;11.23;;;;;;;-143.21;68.61;72490.63;5130495;27;20835;-81
2023/10/06 00:47:13;;;;;;;20.30;10.37;;;;;;;-143.21;68.90;72492.59;5137795;27;20203;-81
2023/10/06 00:49:40;;;;;;;20.53;11.33;;;;;;;-143.21;68.80;72492.59;5142610;27;20203;-83
2023/10/06 00:52:12;;;;;;;24.10;10.80;;;;;;;-143.21;68.68;72496.56;5141829;27;20589;-83
2023/10/06 00:54:39;;;;;;;20.00;11.23;;;;;;;-143.21;69.02;72496.56;5134964;27;20648;-83
2023/10/06 00:57:10;;;;;;;16.00;11.27;;;;;;;-143.21;68.71;72496.56;5134758;27;20203;-83
2023/10/06 00:59:37;;;;;;;15.73;10.63;;;;;;;-143.21;68.79;72506.50;5134629;27;20206;-82
2023/10/06 01:02:08;;;;;;;19.30;10.50;;;;;;;-143.21;68.55;72504.50;5144710;27;20258;-81
2023/10/06 01:04:38;;;;;;;19.60;11.27;;;;;;;-143.21;68.60;72506.50;5137330;27;20214;-81
2023/10/06 01:07:07;;;;;;;20.23;11.07;;;;;;;-143.21;68.59;72502.53;5137304;27;20199;-81
2023/10/06 01:09:36;;;;;;;16.90;10.40;;;;;;;-143.21;68.97;72496.56;5137529;27;20202;-81
2023/10/06 01:12:06;;;;;;;16.93;10.83;;;;;;;-143.21;68.98;72496.56;5137441;27;20300;-81
2023/10/06 01:14:34;;;;;;;19.73;10.60;;;;;;;-143.21;69.00;72498.56;5133870;27;20586;-81
2023/10/06 01:17:14;;;;;;;18.50;10.70;;;;;;;-143.21;68.98;72494.59;5134616;27;20213;-81
2023/10/06 01:19:48;;;;;;;18.73;10.47;;;;;;;-143.21;68.94;72494.59;5140907;27;20203;-80
2023/10/06 01:22:22;;;;;;;18.13;11.13;;;;;;;-143.21;68.84;72494.59;5134665;27;20195;-80
2023/10/06 01:24:49;;;;;;;18.37;10.87;;;;;;;-143.21;69.01;72498.56;5136242;27;20219;-80
2023/10/06 01:27:16;;;;;;;17.23;10.80;;;;;;;-143.21;68.89;72500.53;5134494;27;20264;-80
2023/10/06 01:29:45;;;;;;;14.90;10.57;;;;;;;-143.21;69.35;72510.44;5138274;27;20207;-80
2023/10/06 01:32:13;;;;;;;18.90;10.50;;;;;;;-143.21;69.45;72516.41;5137537;27;20253;-80
2023/10/06 01:34:44;;;;;;;15.90;9.47;;;;;;;-143.21;69.22;72508.47;5134100;27;20203;-80
2023/10/06 01:37:11;;;;;;;16.00;9.43;;;;;;;-143.21;68.92;72518.38;5134329;27;20240;-80
2023/10/06 01:39:40;;;;;;;15.60;9.90;;;;;;;-143.21;68.87;72522.34;5138018;27;20206;-80
2023/10/06 01:42:09;;;;;;;17.07;9.20;;;;;;;-143.21;68.79;72512.44;5133981;27;20222;-82
2023/10/06 01:44:37;;;;;;;17.00;8.97;;;;;;;-143.21;68.50;72500.53;5135577;27;20219;-81
2023/10/06 01:47:04;;;;;;;17.13;9.40;;;;;;;-143.21;68.33;72502.53;5139188;27;20201;-81
2023/10/06 01:49:33;;;;;;;18.80;9.70;;;;;;;-143.21;68.29;72504.50;5133715;27;20274;-80
2023/10/06 01:52:04;;;;;;;13.37;8.17;;;;;;;-143.21;68.08;72508.47;5133204;27;20235;-80
2023/10/06 01:54:34;;;;;;;13.17;7.90;;;;;;;-143.21;68.08;72510.44;5135824;27;20196;-80
2023/10/06 01:57:06;;;;;;;13.23;8.00;;;;;;;-143.21;67.61;72506.50;5140510;27;20713;-81
2023/10/06 01:59:32;;;;;;;15.30;8.37;;;;;;;-143.21;67.32;72502.53;5139909;27;20219;-80
2023/10/06 02:02:01;;;;;;;20.37;8.37;;;;;;;-143.21;67.14;72496.56;5139034;27;20538;-79
2023/10/06 02:04:38;;;;;;;12.50;8.40;;;;;;;-143.21;67.45;72506.50;5133178;27;20219;-79
2023/10/06 02:07:09;;;;;;;17.03;9.20;;;;;;;-143.21;67.59;72510.44;5145683;27;20203;-78
2023/10/06 02:09:37;;;;;;;16.93;8.77;;;;;;;-143.21;67.90;72512.44;5138073;27;20204;-79
2023/10/06 02:12:06;;;;;;;19.80;8.57;;;;;;;-143.21;67.98;72512.44;5146353;27;20205;-80
2023/10/06 02:14:33;;;;;;;15.53;8.43;;;;;;;-143.21;67.98;72514.41;5142418;27;20255;-80
2023/10/06 02:17:05;;;;;;;24.47;8.77;;;;;;;-143.21;67.56;72516.41;5136906;27;20207;-80
2023/10/06 02:19:36;;;;;;;15.87;8.47;;;;;;;-143.21;67.50;72518.38;5138497;27;20203;-79
2023/10/06 02:22:06;;;;;;;15.73;9.03;;;;;;;-143.21;67.33;72514.41;5140164;27;20217;-79
2023/10/06 02:24:33;;;;;;;12.90;8.40;;;;;;;-143.21;67.26;72518.38;5139546;27;20218;-79
2023/10/06 02:27:01;;;;;;;17.00;9.17;;;;;;;-143.21;67.69;72518.38;5141359;27;20252;-78
2023/10/06 02:29:29;;;;;;;14.03;8.50;;;;;;;-143.21;67.69;72522.34;5142979;27;20206;-78
2023/10/06 02:32:00;;;;;;;14.03;8.63;;;;;;;-143.21;67.50;72516.41;5135416;27;20195;-78
2023/10/06 02:34:30;;;;;;;16.37;9.07;;;;;;;-143.21;67.77;72522.34;5136800;27;20187;-79
2023/10/06 02:36:57;;;;;;;17.43;9.10;;;;;;;-143.21;67.84;72530.28;5135287;27;20230;-79
2023/10/06 02:39:26;;;;;;;13.57;8.27;;;;;;;-143.21;67.94;72526.31;5132003;27;20213;-78
2023/10/06 02:41:57;;;;;;;19.10;9.57;;;;;;;-143.21;68.14;72542.19;5132349;27;20226;-79
2023/10/06 02:44:24;;;;;;;16.07;8.90;;;;;;;-143.21;68.22;72548.13;5143231;27;20212;-79
2023/10/06 02:46:53;;;;;;;17.47;9.47;;;;;;;-143.21;68.38;72548.13;5131775;27;20202;-80
2023/10/06 02:49:25;;;;;;;19.10;9.10;;;;;;;-143.21;68.26;72546.16;5143341;27;20207;-79
2023/10/06 02:51:56;;;;;;;19.73;9.07;;;;;;;-143.21;68.31;72548.13;5135481;27;20235;-79
2023/10/06 02:54:27;;;;;;;18.83;8.73;;;;;;;-143.21;68.20;72546.16;5138385;27;20191;-79
2023/10/06 02:56:55;;;;;;;15.60;9.07;;;;;;;-143.21;68.64;72556.06;5132726;27;20275;-80
2023/10/06 02:59:23;;;;;;;20.53;9.53;;;;;;;-143.21;68.79;72548.13;5142511;27;20297;-80
2023/10/06 03:01:56;;;;;;;18.57;9.10;;;;;;;-143.21;68.79;72548.13;5136254;27;20203;-81
2023/10/06 03:04:26;;;;;;;17.70;9.67;;;;;;;-143.21;68.79;72530.28;5136662;27;20285;-81
2023/10/06 03:06:55;;;;;;;20.43;10.17;;;;;;;-143.21;68.79;72536.25;5136067;27;20279;-81
2023/10/06 03:09:27;;;;;;;17.30;9.83;;;;;;;-143.21;68.45;72528.31;5139506;27;20203;-81
2023/10/06 03:11:58;;;;;;;22.70;9.97;;;;;;;-143.21;68.37;72524.34;5143084;27;20191;-80
2023/10/06 03:14:37;;;;;;;15.57;9.63;;;;;;;-143.21;68.68;72530.28;5132054;27;20214;-81
2023/10/06 03:17:10;;;;;;;22.33;9.97;;;;;;;-143.21;68.61;72530.28;5137051;27;20224;-80
2023/10/06 03:19:40;;;;;;;22.00;10.50;;;;;;;-143.21;68.65;72530.28;5135072;27;20236;-80
2023/10/06 03:22:09;;;;;;;17.07;10.50;;;;;;;-143.21;68.44;72522.34;5135067;27;20290;-79
2023/10/06 03:24:43;;;;;;;20.23;10.13;;;;;;;-143.21;68.44;72522.34;5135898;27;20222;-79
2023/10/06 03:27:12;;;;;;;21.23;9.70;;;;;;;-143.21;68.37;72524.34;5133862;27;20245;-79
2023/10/06 03:29:51;;;;;;;17.63;10.30;;;;;;;-143.21;68.41;72516.41;5133103;27;20191;-80
2023/10/06 03:32:32;;;;;;;19.77;10.03;;;;;;;-143.21;68.42;72522.34;5134986;27;20199;-80
2023/10/06 03:35:06;;;;;;;22.83;12.17;;;;;;;-143.21;68.51;72518.38;5138676;27;20251;-80
2023/10/06 03:37:38;;;;;;;22.03;14.53;;;;;;;-143.21;68.47;72518.38;5135168;27;20211;-80
2023/10/06 03:40:21;;;;;;;26.30;11.93;;;;;;;-143.21;68.45;72524.34;5138490;27;20191;-80
2023/10/06 03:42:48;;;;;;;24.03;11.03;;;;;;;-143.21;68.33;72520.38;5138054;27;20264;-80
2023/10/06 03:45:26;;;;;;;20.73;11.20;;;;;;;-143.21;68.53;72528.31;5137603;27;20230;-80
2023/10/06 03:48:08;;;;;;;24.17;10.93;;;;;;;-143.21;68.70;72534.25;5131573;27;20199;-79
2023/10/06 03:50:38;;;;;;;18.27;11.27;;;;;;;-143.21;68.80;72526.31;5137799;27;20253;-79
2023/10/06 03:53:08;;;;;;;31.37;11.80;;;;;;;-143.21;68.76;72534.25;5140969;27;20574;-80
2023/10/06 03:55:39;;;;;;;25.23;12.00;;;;;;;-143.21;68.86;72532.28;5138234;27;20205;-80
2023/10/06 03:58:07;;;;;;;24.57;10.83;;;;;;;-143.21;69.25;72540.19;5134782;27;20203;-80
2023/10/06 04:00:38;;;;;;;21.30;10.63;;;;;;;-143.21;69.24;72544.16;5136576;27;20290;-80
2023/10/06 04:03:13;;;;;;;17.43;9.00;;;;;;;-143.21;68.66;72538.22;5138965;27;20195;-80
2023/10/06 04:05:40;;;;;;;12.73;8.17;;;;;;;-143.21;68.27;72542.19;5133709;27;20221;-79
2023/10/06 04:08:11;;;;;;;15.50;8.17;;;;;;;-143.21;68.05;72540.19;5135312;27;20203;-79
2023/10/06 04:10:40;;;;;;;16.33;7.97;;;;;;;-143.21;67.48;72542.19;5135846;27;20199;-79
2023/10/06 04:13:08;;;;;;;15.30;8.00;;;;;;;-143.21;67.60;72544.16;5137874;27;20290;-80
2023/10/06 04:15:38;;;;;;;13.77;7.87;;;;;;;-143.21;67.25;72540.19;5133975;27;20282;-80
2023/10/06 04:18:09;;;;;;;17.50;8.27;;;;;;;-143.21;67.33;72548.13;5130596;27;20200;-80
2023/10/06 04:20:59;;;;;;;13.57;7.67;;;;;;;-143.21;67.07;72556.06;5136942;27;20633;-81
2023/10/06 04:23:38;;;;;;;15.63;7.70;;;;;;;-143.21;67.21;72575.91;5125200;27;20229;-82
2023/10/06 04:26:05;;;;;;;19.87;8.33;;;;;;;-143.21;67.46;72579.88;5136414;27;20195;-78
2023/10/06 04:28:31;;;;;;;12.47;7.03;;;;;;;-143.21;67.25;72573.91;5133192;27;20210;-81
2023/10/06 04:31:00;;;;;;;15.30;7.80;;;;;;;-143.21;67.04;72571.94;5139328;27;20206;-78
2023/10/06 04:33:28;;;;;;;18.87;7.60;;;;;;;-143.21;67.08;72573.91;5135877;27;20202;-79
2023/10/06 04:35:59;;;;;;;15.47;7.30;;;;;;;-143.21;67.05;72565.97;5132081;27;20240;-79
2023/10/06 04:38:29;;;;;;;14.83;7.80;;;;;;;-143.21;66.88;72585.81;5130999;27;20209;-78
2023/10/06 04:40:56;;;;;;;14.33;7.07;;;;;;;-143.21;67.08;72579.88;5134534;27;20632;-79
2023/10/06 04:43:23;;;;;;;23.67;7.30;;;;;;;-143.21;67.56;72587.81;5132686;27;20604;-79
2023/10/06 04:45:50;;;;;;;14.07;7.77;;;;;;;-143.21;67.08;72591.78;5127918;27;20219;-79
2023/10/06 04:48:18;;;;;;;15.97;7.60;;;;;;;-143.21;67.23;72593.75;5134891;27;20310;-79
2023/10/06 04:50:46;;;;;;;14.37;8.17;;;;;;;-143.21;67.11;72593.75;5132423;27;20322;-79
2023/10/06 04:53:16;;;;;;;15.87;7.80;;;;;;;-143.21;67.44;72597.72;5128956;27;20245;-79
2023/10/06 04:55:44;;;;;;;13.73;7.27;;;;;;;-143.21;67.32;72597.72;5131659;27;20202;-78
2023/10/06 04:58:13;;;;;;;16.03;8.00;;;;;;;-143.21;67.51;72609.63;5139671;27;20276;-78
2023/10/06 05:00:39;;;;;;;29.50;7.73;;;;;;;-143.21;68.13;72625.47;5129093;27;20291;-80
2023/10/06 05:03:09;;;;;;;18.10;7.93;;;;;;;-143.21;68.58;72643.34;5130093;27;20264;-77
2023/10/06 05:05:37;;;;;;;21.80;7.70;;;;;;;-143.21;68.28;72641.34;5143296;27;20222;-77
2023/10/06 05:08:09;;;;;;;14.23;7.80;;;;;;;-143.21;68.29;72641.34;5137801;27;20210;-77
2023/10/06 05:10:39;;;;;;;20.13;7.80;;;;;;;-143.21;68.12;72633.41;5143625;27;20228;-77
2023/10/06 05:13:06;;;;;;;16.37;8.17;;;;;;;-143.21;67.99;72625.47;5128758;27;20730;-78
2023/10/06 05:15:34;;;;;;;13.23;7.77;;;;;;;-143.21;68.03;72633.41;5129819;27;20202;-78
2023/10/06 05:18:03;;;;;;;18.23;7.17;;;;;;;-143.21;68.42;72635.41;5134646;27;20202;-78
2023/10/06 05:20:31;;;;;;;12.07;7.30;;;;;;;-143.21;68.16;72631.44;5136512;27;20198;-78
2023/10/06 05:23:01;;;;;;;15.97;8.10;;;;;;;-143.21;68.00;72627.47;5134948;27;20192;-78
2023/10/06 05:25:29;;;;;;;12.33;6.97;;;;;;;-143.21;67.96;72617.56;5129251;27;20701;-78
2023/10/06 05:27:59;;;;;;;15.00;7.70;;;;;;;-143.21;68.32;72637.38;5131608;27;20204;-78
2023/10/06 05:30:26;;;;;;;10.90;7.60;;;;;;;-143.21;68.58;72643.34;5128695;27;20305;-78
2023/10/06 05:32:57;;;;;;;12.97;7.43;;;;;;;-143.21;68.90;72643.34;5135094;27;20200;-78
2023/10/06 05:35:24;;;;;;;13.47;7.10;;;;;;;-143.21;68.97;72655.25;5127584;27;20259;-79
2023/10/06 05:37:51;;;;;;;15.47;7.87;;;;;;;-143.21;69.32;72669.13;5128325;27;20665;-78
2023/10/06 05:40:20;;;;;;;16.13;7.63;;;;;;;-143.21;69.42;72665.16;5133040;27;20237;-79
2023/10/06 05:42:49;;;;;;;12.47;7.37;;;;;;;-143.21;69.56;72661.19;5136640;27;20199;-78
2023/10/06 05:45:19;;;;;;;18.37;7.70;;;;;;;-143.21;69.96;72661.19;5139476;27;20235;-79
2023/10/06 05:47:47;;;;;;;15.53;7.90;;;;;;;-143.21;69.92;72669.13;5132832;27;20195;-78
2023/10/06 05:50:26;;;;;;;17.00;7.23;;;;;;;-143.21;70.13;72673.09;5134511;27;20218;-78
2023/10/06 05:52:57;;;;;;;16.20;7.93;;;;;;;-143.21;69.91;72657.22;5136641;27;20201;-79
2023/10/06 05:55:24;;;;;;;16.23;8.07;;;;;;;-143.21;69.92;72655.25;5131143;27;20203;-79
2023/10/06 05:57:55;;;;;;;11.27;7.47;;;;;;;-143.21;69.36;72643.34;5129341;27;20203;-79
2023/10/06 06:00:27;;;;;;;21.23;7.70;;;;;;;-143.21;68.87;72637.38;5132202;27;20194;-78
2023/10/06 06:02:58;;;;;;;14.87;8.07;;;;;;;-143.21;69.05;72625.47;5132733;27;20211;-78
2023/10/06 06:05:24;;;;;;;14.63;7.57;;;;;;;-143.21;68.74;72617.56;5132421;27;20220;-78
2023/10/06 06:07:52;;;;;;;13.80;7.60;;;;;;;-143.21;68.79;72607.63;5133323;27;20215;-79
2023/10/06 06:10:21;;;;;;;14.80;8.07;;;;;;;-143.21;68.58;72599.69;5142377;27;20605;-79
2023/10/06 06:12:48;;;;;;;12.73;7.13;;;;;;;-143.21;67.69;72585.81;5138915;27;20199;-78
2023/10/06 06:15:16;;;;;;;13.73;7.37;;;;;;;-143.21;67.76;72581.84;5134966;27;20713;-78
2023/10/06 06:17:45;;;;;;;11.53;7.30;;;;;;;-143.21;67.45;72579.88;5139322;27;20256;-78
2023/10/06 06:20:14;;;;;;;10.07;7.17;;;;;;;-143.21;67.35;72579.88;5134685;27;20199;-78
2023/10/06 06:22:47;;;;;;;11.80;7.37;;;;;;;-143.21;67.96;72589.78;5146725;27;20203;-78
2023/10/06 06:25:15;;;;;;;17.80;7.87;;;;;;;-143.21;67.77;72585.81;5140261;27;20667;-78
2023/10/06 06:27:43;;;;;;;13.40;8.20;;;;;;;-143.21;67.91;72593.75;5136030;27;20697;-78
2023/10/06 06:30:11;;;;;;;19.63;7.57;;;;;;;-143.21;68.00;72595.75;5140826;27;20256;-78
2023/10/06 06:32:38;;;;;;;13.47;7.80;;;;;;;-143.21;68.13;72599.69;5133162;27;20235;-79
2023/10/06 06:35:10;;;;;;;19.03;8.37;;;;;;;-143.21;67.92;72587.81;5133557;27;20214;-78
2023/10/06 06:37:37;;;;;;;14.60;7.40;;;;;;;-143.21;67.48;72573.91;5138085;27;20210;-78
2023/10/06 06:40:09;;;;;;;16.97;7.57;;;;;;;-143.21;66.98;72564.00;5134730;27;20214;-79
2023/10/06 06:42:36;;;;;;;17.27;7.40;;;;;;;-143.21;66.38;72548.13;5136425;27;20203;-79
2023/10/06 06:45:06;;;;;;;16.70;7.50;;;;;;;-143.21;66.11;72554.09;5136790;27;20286;-79
2023/10/06 06:47:33;;;;;;;14.13;7.80;;;;;;;-143.21;66.62;72564.00;5129992;27;20256;-79
2023/10/06 06:50:00;;;;;;;12.70;7.20;;;;;;;-143.21;66.35;72552.09;5136523;27;20303;-79
2023/10/06 06:52:28;;;;;;;12.27;7.43;;;;;;;-143.21;66.50;72565.97;5132124;27;20246;-79
2023/10/06 06:54:55;;;;;;;14.07;8.07;;;;;;;-143.21;66.85;72565.97;5137253;27;20208;-79
2023/10/06 07:00:22;;;;;;;12.87;8.03;;;;;;;-143.21;66.61;72544.16;5098333;27;20206;-79
2023/10/06 07:02:51;;;;;;;14.17;7.73;;;;;;;-143.21;66.29;72528.31;5140348;27;20282;-79
2023/10/06 07:05:18;;;;;;;13.33;8.23;;;;;;;-143.21;66.09;72512.44;5140912;27;20227;-80
2023/10/06 07:07:50;;;;;;;14.63;8.03;;;;;;;-143.21;65.67;72508.47;5134677;27;20294;-79
2023/10/06 07:10:19;;;;;;;16.83;8.30;;;;;;;-143.21;65.41;72492.59;5137549;27;20207;-79
2023/10/06 07:12:47;;;;;;;13.60;7.30;;;;;;;-143.21;64.57;72472.78;5134829;27;20210;-79
2023/10/06 07:15:18;;;;;;;12.35;7.95;;;;;;;-143.21;64.25;72468.81;5140741;27;20315;-78
2023/10/06 07:17:46;;;;;;;14.55;7.13;;;;;;;-143.21;64.23;72456.91;5138829;27;20330;-80
2023/10/06 07:20:17;;;;;;;18.85;7.45;;;;;;;-143.21;63.45;72437.06;5137556;27;20361;-79
2023/10/06 07:22:48;;;;;;;15.70;6.85;;;;;;;-143.21;63.75;72437.06;5137019;27;20211;-79
2023/10/06 07:25:16;;;;;;;15.95;7.55;;;;;;;-143.21;64.25;72419.22;5138500;27;20223;-82
2023/10/06 07:27:44;;;;;;;16.13;7.95;;;;;;;-143.21;62.15;72393.44;5134758;27;20294;-81
2023/10/06 07:30:14;;;;;;;15.25;8.25;;;;;;;-143.21;61.96;72399.41;5135719;27;20199;-82
2023/10/06 07:32:46;;;;;;;16.10;7.60;;;;;;;-143.21;62.24;72397.41;5138222;27;20211;-80
2023/10/06 07:35:14;;;;;;;13.43;8.43;;;;;;;-143.21;61.80;72381.53;5134297;27;20526;-81
2023/10/06 07:37:43;;;;;;;11.93;8.13;;;;;;;-143.21;61.37;72365.69;5132975;27;20203;-81
2023/10/06 07:40:18;;;;;;;13.52;8.23;;;;;;;-143.21;61.11;72361.72;5130558;27;20210;-80
2023/10/06 07:42:56;;;;;;;17.48;8.45;;;;;;;-143.21;60.88;72367.66;5138427;27;20253;-80
2023/10/06 07:45:23;;;;;;;15.85;7.40;;;;;;;-143.21;61.07;72371.63;5130862;27;20211;-77
2023/10/06 07:47:50;;;;;;;13.02;7.50;;;;;;;-143.21;61.33;72369.66;5135292;27;20657;-80
2023/10/06 07:50:17;;;;;;;22.15;8.60;;;;;;;-143.21;60.68;72343.88;5140573;27;20203;-82
2023/10/06 07:52:46;;;;;;;19.15;7.97;;;;;;;-143.21;60.20;72331.97;5134728;27;20207;-80
2023/10/06 07:55:15;;;;;;;14.52;8.05;;;;;;;-143.21;60.07;72329.97;5133784;27;20674;-79
2023/10/06 07:57:45;;;;;;;19.85;8.55;;;;;;;-143.21;59.89;72324.03;5132790;27;20207;-80
2023/10/06 08:00:18;;;;;;;16.55;7.90;;;;;;;-143.21;59.96;72300.25;5133716;27;20232;-81
2023/10/06 08:02:45;;;;;;;18.10;8.18;;;;;;;-143.21;59.59;72286.34;5131196;27;20203;-80
2023/10/06 08:05:17;;;;;;;15.80;7.82;;;;;;;-143.21;58.91;72278.41;5136271;27;20664;-80
2023/10/06 08:07:44;;;;;;;17.85;7.80;;;;;;;-143.21;58.53;72290.31;5133610;27;20638;-80
2023/10/06 08:10:13;;;;;;;16.42;8.10;;;;;;;-143.21;58.47;72278.41;5130048;27;20207;-79
2023/10/06 08:12:45;;;;;;;17.02;8.90;;;;;;;-143.21;58.26;72278.41;5131056;27;20207;-79
2023/10/06 08:15:17;;;;;;;14.82;8.00;;;;;;;-143.21;58.49;72288.34;5135752;27;20286;-79
2023/10/06 08:17:45;;;;;;;15.77;7.85;;;;;;;-143.21;58.18;72270.50;5133173;27;20207;-79
2023/10/06 08:20:13;;;;;;;11.88;8.23;;;;;;;-143.21;57.79;72260.56;5130613;27;20272;-79
2023/10/06 08:22:40;;;;;;;14.45;8.43;;;;;;;-143.21;57.48;72276.44;5132868;27;20230;-80
2023/10/06 08:25:09;;;;;;;16.77;7.70;;;;;;;-143.21;57.93;72268.50;5136622;27;20207;-77
2023/10/06 08:27:35;;;;;;;18.73;9.60;;;;;;;-143.21;57.24;72248.66;5138567;27;20240;-79
2023/10/06 08:30:08;;;;;;;16.65;8.77;;;;;;;-143.21;56.57;72242.72;5132914;27;20200;-82
2023/10/06 08:32:35;;;;;;;18.35;7.53;;;;;;;-143.21;56.46;72254.63;5134722;27;20251;-79
2023/10/06 08:35:02;;;;;;;18.58;7.95;;;;;;;-143.21;56.25;72244.72;5135268;27;20259;-79
2023/10/06 08:37:30;;;;;;;15.35;8.73;;;;;;;-143.21;56.23;72246.69;5137895;27;20260;-79
2023/10/06 08:39:57;;;;;;;25.40;8.75;;;;;;;-143.21;56.34;72250.66;5139774;27;20214;-79
2023/10/06 08:42:25;;;;;;;17.35;7.97;;;;;;;-143.21;56.15;72242.72;5133949;27;20200;-78
2023/10/06 08:44:52;;;;;;;16.27;8.18;;;;;;;-143.21;56.06;72246.69;5134498;27;20195;-79
2023/10/06 08:47:20;;;;;;;15.75;8.50;;;;;;;-143.21;55.90;72246.69;5144131;27;20223;-78
2023/10/06 08:49:48;;;;;;;14.30;8.15;;;;;;;-143.21;56.00;72240.75;5133840;27;20215;-80
2023/10/06 08:52:22;;;;;;;14.25;8.77;;;;;;;-143.21;56.04;72222.91;5136561;27;20246;-78
2023/10/06 08:54:49;;;;;;;11.80;8.45;;;;;;;-143.21;55.77;72205.03;5144737;27;20247;-78
2023/10/06 08:57:16;;;;;;;17.67;8.48;;;;;;;-143.21;55.09;72185.22;5140902;27;20203;-78
2023/10/06 08:59:44;;;;;;;22.55;8.88;;;;;;;-143.21;54.46;72169.34;5130113;27;20264;-79
2023/10/06 09:02:13;;;;;;;16.52;8.32;;;;;;;-143.21;54.43;72173.31;5137227;27;20198;-79
2023/10/06 09:04:41;;;;;;;15.55;8.25;;;;;;;-143.21;53.87;72165.38;5137592;27;20195;-79
2023/10/06 09:07:13;;;;;;;16.75;10.05;;;;;;;-143.21;54.13;72169.34;5136920;27;20226;-79
2023/10/06 09:09:43;;;;;;;15.55;8.27;;;;;;;-143.21;53.93;72171.34;5137763;27;20194;-80
2023/10/06 09:12:10;;;;;;;17.67;8.65;;;;;;;-143.21;54.04;72177.28;5129256;27;20191;-82
2023/10/06 09:14:55;;;;;;;18.60;8.65;;;;;;;-143.21;53.71;72165.38;5135125;27;20226;-81
2023/10/06 09:17:31;;;;;;;16.92;8.43;;;;;;;-143.21;53.60;72159.44;5136536;27;20199;-82
2023/10/06 09:20:08;;;;;;;17.95;9.13;;;;;;;-143.21;53.41;72153.47;5134382;27;20190;-82
2023/10/06 09:22:45;;;;;;;24.52;8.75;;;;;;;-143.21;53.35;72145.56;5133946;27;20192;-82
2023/10/06 09:25:21;;;;;;;19.20;8.48;;;;;;;-143.21;52.36;72123.75;5134170;27;20214;-82
2023/10/06 09:28:03;;;;;;;16.30;9.25;;;;;;;-143.21;52.36;72129.69;5133658;27;20248;-81
2023/10/06 09:30:30;;;;;;;12.88;8.18;;;;;;;-143.21;52.64;72147.53;5143615;27;20226;-80
2023/10/06 09:33:05;;;;;;;16.38;8.90;;;;;;;-143.21;52.68;72141.59;5139803;27;20614;-81
2023/10/06 09:35:33;;;;;;;22.67;9.18;;;;;;;-143.21;52.72;72137.63;5135306;27;20229;-81
2023/10/06 09:38:13;;;;;;;15.82;8.57;;;;;;;-143.21;52.68;72141.59;5137375;27;20199;-82
2023/10/06 09:40:44;;;;;;;19.10;8.68;;;;;;;-143.21;52.65;72141.59;5134981;27;20195;-81
2023/10/06 09:43:16;;;;;;;15.70;8.27;;;;;;;-143.21;52.28;72127.72;5134047;27;20196;-80
2023/10/06 09:45:44;;;;;;;14.82;8.23;;;;;;;-143.21;52.02;72103.91;5146136;27;20318;-79
2023/10/06 09:48:17;;;;;;;15.25;8.55;;;;;;;-143.21;51.36;72092.00;5136274;27;20207;-79
2023/10/06 09:50:50;;;;;;;13.10;8.80;;;;;;;-143.21;51.54;72084.06;5142953;27;20235;-80
2023/10/06 09:53:21;;;;;;;16.58;7.93;;;;;;;-143.21;51.18;72068.22;5140397;27;21020;-80
2023/10/06 09:55:49;;;;;;;14.77;8.68;;;;;;;-143.21;50.21;72056.31;5140617;27;20200;-80
2023/10/06 09:58:20;;;;;;;13.23;8.45;;;;;;;-143.21;50.05;72064.25;5140886;27;20313;-79
2023/10/06 10:00:50;;;;;;;14.35;8.73;;;;;;;-143.21;50.15;72056.31;5141828;27;20206;-80
2023/10/06 10:03:19;;;;;;;20.58;9.05;;;;;;;-143.21;50.07;72042.44;5139397;27;20290;-79
2023/10/06 10:05:48;;;;;;;21.48;8.38;;;;;;;-143.21;49.25;72024.59;5133996;27;20231;-79
2023/10/06 10:08:16;;;;;;;15.02;8.02;;;;;;;-143.21;48.94;72022.59;5140375;27;20826;-79
2023/10/06 10:10:46;;;;;;;15.60;7.78;;;;;;;-143.21;48.43;72026.56;5142358;27;20230;-79
2023/10/06 10:13:39;;;;;;;13.45;7.68;;;;;;;-143.21;48.80;72054.34;5140375;27;20207;-80
2023/10/06 10:16:27;;;;;;;15.07;7.75;;;;;;;-143.21;48.80;72070.19;5134367;27;20200;-82
2023/10/06 10:19:00;;;;;;;20.45;7.90;;;;;;;-143.21;48.83;72080.13;5133929;27;20201;-79
2023/10/06 10:21:28;;;;;;;14.18;8.07;;;;;;;-143.21;49.01;72101.94;5141489;27;20182;-79
2023/10/06 10:23:56;;;;;;;21.40;8.35;;;;;;;-143.21;49.25;72103.91;5134696;27;20650;-80
2023/10/06 10:26:30;;;;;;;22.20;7.82;;;;;;;-143.21;49.10;72094.00;5136386;27;20753;-78
2023/10/06 10:29:30;;;;;;;15.68;8.35;;;;;;;-143.21;48.62;72072.19;5133265;27;20708;-79
2023/10/06 10:32:06;;;;;;;15.02;7.55;;;;;;;-143.21;48.49;72094.00;5136979;27;20278;-79
2023/10/06 10:34:34;;;;;;;14.80;7.68;;;;;;;-143.21;48.89;72090.03;5139493;27;20195;-78
2023/10/06 10:37:18;;;;;;;15.73;7.93;;;;;;;-143.21;48.34;72099.94;5139793;27;20206;-78
2023/10/06 10:39:50;;;;;;;11.88;7.60;;;;;;;-143.21;48.39;72107.88;5133268;27;20207;-80
2023/10/06 10:42:18;;;;;;;12.25;7.57;;;;;;;-143.21;48.03;72111.84;5135979;27;20210;-82
2023/10/06 10:44:47;;;;;;;10.77;7.70;;;;;;;-143.21;47.60;72107.88;5135999;27;20211;-82
2023/10/06 10:47:15;;;;;;;14.93;7.47;;;;;;;-143.21;47.84;72103.91;5132875;27;20227;-82
2023/10/06 10:49:44;;;;;;;15.23;7.35;;;;;;;-143.21;47.76;72105.91;5137030;27;20279;-81
2023/10/06 10:52:12;;;;;;;9.55;7.50;;;;;;;-143.21;47.29;72101.94;5135502;27;20256;-81
2023/10/06 10:54:42;;;;;;;18.13;6.72;;;;;;;-143.21;46.35;72086.06;5138108;27;20206;-84
2023/10/06 10:57:13;;;;;;;15.93;7.97;;;;;;;-143.21;46.44;72066.22;5137652;27;20206;-83
2023/10/06 11:00:13;;;;;;;11.52;6.85;;;;;;;-143.21;46.45;72072.19;5134705;27;20666;-82
2023/10/06 11:02:45;;;;;;;14.55;7.63;;;;;;;-143.21;45.80;72050.38;5136103;27;20213;-83
2023/10/06 11:05:12;;;;;;;19.80;7.18;;;;;;;-143.21;45.42;72030.53;5134755;27;20222;-81
2023/10/06 11:07:41;;;;;;;12.43;7.43;;;;;;;-143.21;44.49;72016.66;5139358;27;20226;-81
2023/10/06 11:10:17;;;;;;;14.23;6.82;;;;;;;-143.21;44.27;72014.69;5133926;27;20208;-83
2023/10/06 11:12:43;;;;;;;18.67;6.70;;;;;;;-143.21;44.39;72030.53;5135344;27;20270;-80
2023/10/06 11:15:20;;;;;;;10.35;6.68;;;;;;;-143.21;44.77;72020.63;5144580;27;20201;-80
2023/10/06 11:17:47;;;;;;;13.20;7.28;;;;;;;-143.21;44.84;72006.75;5135696;27;20207;-80
2023/10/06 11:20:15;;;;;;;12.85;6.82;;;;;;;-143.21;43.79;71986.91;5144075;27;20203;-81
2023/10/06 11:22:59;;;;;;;17.80;7.18;;;;;;;-143.21;43.09;71967.09;5136364;27;20207;-80
2023/10/06 11:25:28;;;;;;;11.88;7.07;;;;;;;-143.21;42.64;71943.28;5133764;27;20191;-81
2023/10/06 11:28:03;;;;;;;11.88;6.70;;;;;;;-143.21;42.75;71923.47;5138144;27;20220;-82